Time;durP1;ratioP1;P1;durP2;ratioP2;P2;SDS_P1;SDS_P2;PMS_P1;PMS_P2;Temp;Humidity;BMP_temperature;BMP_pressure;BME280_temperature;BME280_humidity;BME280_pressure;Samples;Min_cycle;Max_cycle;Signal;HPM_P1;HPM_P2
2024/01/07 00:00:10;;;;;;;;;;;2.10;99.90;;;;;;5016317;28;19941;-74
2024/01/07 00:02:37;;;;;;;;;;;2.10;99.90;;;;;;5015977;28;19932;-74
2024/01/07 00:05:04;;;;;;;;;;;2.10;99.90;;;;;;5016022;28;20020;-75
2024/01/07 00:07:30;;;;;;;;;;;2.10;99.90;;;;;;5015887;28;19932;-75
2024/01/07 00:09:57;;;;;;;;;;;2.10;99.90;;;;;;5015787;28;19926;-74
2024/01/07 00:12:25;;;;;;;;;;;2.10;99.90;;;;;;5015771;28;19930;-76
2024/01/07 00:14:51;;;;;;;;;;;2.10;99.90;;;;;;5015742;28;20050;-76
2024/01/07 00:17:18;;;;;;;;;;;2.10;99.90;;;;;;5015692;28;19933;-75
2024/01/07 00:19:44;;;;;;;;;;;2.10;99.90;;;;;;5015760;28;19925;-75
2024/01/07 00:22:11;;;;;;;;;;;2.00;99.90;;;;;;5015629;28;19925;-75
2024/01/07 00:24:37;;;;;;;;;;;2.00;99.90;;;;;;5015496;28;20001;-75
2024/01/07 00:27:04;;;;;;;;;;;2.00;99.90;;;;;;5015526;28;19948;-75
2024/01/07 00:29:34;;;;;;;;;;;2.00;99.90;;;;;;5015509;28;19926;-75
2024/01/07 00:32:01;;;;;;;;;;;2.00;99.90;;;;;;5015395;28;19925;-76
2024/01/07 00:34:27;;;;;;;;;;;2.00;99.90;;;;;;5015279;28;19926;-75
2024/01/07 00:36:54;;;;;;;;;;;1.90;99.90;;;;;;5015454;28;19933;-75
2024/01/07 00:39:21;;;;;;;;;;;1.90;99.90;;;;;;5015103;28;19933;-75
2024/01/07 00:41:48;;;;;;;;;;;1.90;99.90;;;;;;5015234;28;19952;-75
2024/01/07 00:44:15;;;;;;;;;;;1.90;99.90;;;;;;5015036;28;19937;-75
2024/01/07 00:46:42;;;;;;;;;;;1.80;99.90;;;;;;5014861;28;19926;-75
2024/01/07 00:49:09;;;;;;;;;;;1.80;99.90;;;;;;5015064;28;19926;-75
2024/01/07 00:51:35;;;;;;;;;;;1.80;99.90;;;;;;5014674;28;19925;-74
2024/01/07 00:54:02;;;;;;;;;;;1.80;99.90;;;;;;5014809;28;19930;-74
2024/01/07 00:56:29;;;;;;;;;;;1.80;99.90;;;;;;5026903;23;19990;-70
2024/01/07 00:58:55;;;;;;;;;;;1.80;99.90;;;;;;4995041;28;20306;-71
2024/01/07 01:01:22;;;;;;;;;;;1.80;99.90;;;;;;4995334;28;19926;-71
2024/01/07 01:03:50;;;;;;;;;;;1.80;99.90;;;;;;4995174;28;19926;-71
2024/01/07 01:06:16;;;;;;;;;;;1.80;99.90;;;;;;5005801;28;19926;-71
2024/01/07 01:08:43;;;;;;;;;;;1.80;99.90;;;;;;5014788;28;19929;-71
2024/01/07 01:11:10;;;;;;;;;;;1.80;99.90;;;;;;5014863;28;20344;-71
2024/01/07 01:13:36;;;;;;;;;;;1.80;99.90;;;;;;5014764;28;19932;-71
2024/01/07 01:16:03;;;;;;;;;;;1.80;99.90;;;;;;5014762;28;19932;-72
2024/01/07 01:18:30;;;;;;;;;;;1.80;99.90;;;;;;5014578;28;19926;-72
2024/01/07 01:20:57;;;;;;;;;;;1.80;99.90;;;;;;5014542;28;19925;-71
2024/01/07 01:23:24;;;;;;;;;;;1.80;99.90;;;;;;5014449;28;19930;-71
2024/01/07 01:25:51;;;;;;;;;;;1.90;99.90;;;;;;5014368;28;19929;-71
2024/01/07 01:28:17;;;;;;;;;;;1.90;99.90;;;;;;5015022;28;19929;-70
2024/01/07 01:30:44;;;;;;;;;;;1.90;99.90;;;;;;5014409;28;19932;-70
2024/01/07 01:33:10;;;;;;;;;;;1.90;99.90;;;;;;5014489;28;19930;-70
2024/01/07 01:35:37;;;;;;;;;;;2.00;99.90;;;;;;5014300;28;19948;-70
2024/01/07 01:38:05;;;;;;;;;;;1.90;99.90;;;;;;5014404;28;19926;-70
2024/01/07 01:40:31;;;;;;;;;;;1.90;99.90;;;;;;5014157;28;20378;-70
2024/01/07 01:42:58;;;;;;;;;;;1.90;99.90;;;;;;5014012;28;19977;-70
2024/01/07 01:45:24;;;;;;;;;;;1.90;99.90;;;;;;5014168;28;19925;-70
2024/01/07 01:47:51;;;;;;;;;;;1.90;99.90;;;;;;5014307;28;19925;-70
2024/01/07 01:50:17;;;;;;;;;;;1.90;99.90;;;;;;5014234;28;19925;-70
2024/01/07 01:52:45;;;;;;;;;;;1.90;99.90;;;;;;5013900;28;20351;-71
2024/01/07 01:55:13;;;;;;;;;;;1.90;99.90;;;;;;5013871;28;19929;-71
2024/01/07 01:57:40;;;;;;;;;;;1.90;99.90;;;;;;5014105;28;19933;-71
2024/01/07 02:00:08;;;;;;;;;;;1.90;99.90;;;;;;5014035;28;19933;-70
2024/01/07 02:02:34;;;;;;;;;;;2.00;99.90;;;;;;5013912;28;19926;-70
2024/01/07 02:05:02;;;;;;;;;;;1.90;99.90;;;;;;5016192;28;19961;-70
2024/01/07 02:07:29;;;;;;;;;;;1.90;99.90;;;;;;5017964;28;19925;-70
2024/01/07 02:09:55;;;;;;;;;;;1.90;99.90;;;;;;5017852;28;20406;-71
2024/01/07 02:12:23;;;;;;;;;;;1.90;99.90;;;;;;5017877;28;19962;-71
2024/01/07 02:14:50;;;;;;;;;;;1.80;99.90;;;;;;5017520;28;20391;-71
2024/01/07 02:17:18;;;;;;;;;;;1.80;99.90;;;;;;5017743;28;19947;-71
2024/01/07 02:19:44;;;;;;;;;;;1.80;99.90;;;;;;5018622;28;19925;-71
2024/01/07 02:22:11;;;;;;;;;;;1.80;99.90;;;;;;5018781;28;19932;-71
2024/01/07 02:24:38;;;;;;;;;;;1.80;99.90;;;;;;5018296;28;20294;-71
2024/01/07 02:27:05;;;;;;;;;;;1.80;99.90;;;;;;5017645;28;20366;-71
2024/01/07 02:29:32;;;;;;;;;;;1.80;99.90;;;;;;5017593;28;20429;-71
2024/01/07 02:31:58;;;;;;;;;;;1.80;99.90;;;;;;5017637;28;20383;-70
2024/01/07 02:34:25;;;;;;;;;;;1.80;99.90;;;;;;5017757;28;19926;-70
2024/01/07 02:36:51;;;;;;;;;;;1.80;99.90;;;;;;5017201;28;20323;-70
2024/01/07 02:39:18;;;;;;;;;;;1.80;99.90;;;;;;5017647;28;19925;-70
2024/01/07 02:41:46;;;;;;;;;;;1.80;99.90;;;;;;5017799;28;19926;-72
2024/01/07 02:44:13;;;;;;;;;;;1.80;99.90;;;;;;5017440;28;19929;-71
2024/01/07 02:46:39;;;;;;;;;;;1.90;99.90;;;;;;5017170;28;20387;-70
2024/01/07 02:49:06;;;;;;;;;;;1.80;99.90;;;;;;5017566;28;19926;-70
2024/01/07 02:51:32;;;;;;;;;;;1.80;99.90;;;;;;5017454;28;19929;-72
2024/01/07 02:53:59;;;;;;;;;;;1.80;99.90;;;;;;5017271;28;19925;-71
2024/01/07 02:56:25;;;;;;;;;;;1.80;99.90;;;;;;5016868;28;19926;-71
2024/01/07 02:58:53;;;;;;;;;;;1.80;99.90;;;;;;5017587;28;19929;-71
2024/01/07 03:01:22;;;;;;;;;;;1.80;99.90;;;;;;5016947;28;20299;-71
2024/01/07 03:03:49;;;;;;;;;;;1.80;99.90;;;;;;5017146;28;19948;-72
2024/01/07 03:06:15;;;;;;;;;;;1.70;99.90;;;;;;5017112;28;20297;-71
2024/01/07 03:08:42;;;;;;;;;;;1.80;99.90;;;;;;5016935;28;20287;-71
2024/01/07 03:11:09;;;;;;;;;;;1.80;99.90;;;;;;5016849;28;19932;-71
2024/01/07 03:13:35;;;;;;;;;;;1.70;99.90;;;;;;5016843;28;19933;-71
2024/01/07 03:16:04;;;;;;;;;;;1.70;99.90;;;;;;5016274;28;20056;-71
2024/01/07 03:18:30;;;;;;;;;;;1.80;99.90;;;;;;5016718;28;19933;-71
2024/01/07 03:20:57;;;;;;;;;;;1.80;99.90;;;;;;5016695;28;19929;-71
2024/01/07 03:23:23;;;;;;;;;;;1.80;99.90;;;;;;5016551;28;19925;-71
2024/01/07 03:25:50;;;;;;;;;;;1.80;99.90;;;;;;5016466;28;19961;-71
2024/01/07 03:28:16;;;;;;;;;;;1.80;99.90;;;;;;5016285;28;19932;-71
2024/01/07 03:30:43;;;;;;;;;;;1.80;99.90;;;;;;5027513;28;19924;-71
2024/01/07 03:33:11;;;;;;;;;;;1.90;99.90;;;;;;5026066;28;20383;-71
2024/01/07 03:35:37;;;;;;;;;;;1.90;99.90;;;;;;5016456;28;19925;-71
2024/01/07 03:38:04;;;;;;;;;;;1.90;99.90;;;;;;5016393;28;19926;-71
2024/01/07 03:40:31;;;;;;;;;;;1.90;99.90;;;;;;5016265;28;19925;-71
2024/01/07 03:42:57;;;;;;;;;;;1.90;99.90;;;;;;5015987;28;19926;-71
2024/01/07 03:45:24;;;;;;;;;;;1.90;99.90;;;;;;5016066;28;19925;-71
2024/01/07 03:47:50;;;;;;;;;;;2.00;99.90;;;;;;5016133;28;19931;-69
2024/01/07 03:50:18;;;;;;;;;;;2.00;99.90;;;;;;5016059;28;19933;-71
2024/01/07 03:52:45;;;;;;;;;;;2.00;99.90;;;;;;5016034;28;19925;-71
2024/01/07 03:55:11;;;;;;;;;;;2.00;99.90;;;;;;5015770;28;19926;-72
2024/01/07 03:57:38;;;;;;;;;;;2.00;99.90;;;;;;5016036;28;19932;-72
2024/01/07 04:00:05;;;;;;;;;;;2.00;99.90;;;;;;5015597;28;20298;-72
2024/01/07 04:02:32;;;;;;;;;;;2.00;99.90;;;;;;5015905;28;19975;-72
2024/01/07 04:04:58;;;;;;;;;;;2.00;99.90;;;;;;5015780;28;19932;-72
2024/01/07 04:07:26;;;;;;;;;;;2.00;99.90;;;;;;5015872;28;19933;-72
2024/01/07 04:09:53;;;;;;;;;;;2.00;99.90;;;;;;5015805;28;19933;-72
2024/01/07 04:12:19;;;;;;;;;;;2.00;99.90;;;;;;5015425;28;20306;-72
2024/01/07 04:14:46;;;;;;;;;;;2.00;99.90;;;;;;5015283;28;19932;-71
2024/01/07 04:17:12;;;;;;;;;;;1.90;99.90;;;;;;5015549;28;19932;-71
2024/01/07 04:19:39;;;;;;;;;;;1.90;99.90;;;;;;5015567;28;19932;-71
2024/01/07 04:22:05;;;;;;;;;;;2.00;99.90;;;;;;5015504;28;19929;-71
2024/01/07 04:24:33;;;;;;;;;;;1.90;99.90;;;;;;5015450;28;19926;-71
2024/01/07 04:27:00;;;;;;;;;;;1.90;99.90;;;;;;5014684;28;19926;-71
2024/01/07 04:29:26;;;;;;;;;;;1.90;99.90;;;;;;5015423;28;20020;-72
2024/01/07 04:31:53;;;;;;;;;;;1.90;99.90;;;;;;5015377;28;19932;-72
2024/01/07 04:34:19;;;;;;;;;;;1.90;99.90;;;;;;5015359;28;19926;-71
2024/01/07 04:36:47;;;;;;;;;;;1.90;99.90;;;;;;5015238;28;19948;-71
2024/01/07 04:39:14;;;;;;;;;;;1.90;99.90;;;;;;5014945;28;20555;-71
2024/01/07 04:41:42;;;;;;;;;;;1.90;99.90;;;;;;5015393;28;19933;-71
2024/01/07 04:44:08;;;;;;;;;;;1.90;99.90;;;;;;5015200;28;19925;-71
2024/01/07 04:46:35;;;;;;;;;;;1.90;99.90;;;;;;5015097;28;19936;-71
2024/01/07 04:49:02;;;;;;;;;;;1.90;99.90;;;;;;5015288;28;20382;-71
2024/01/07 04:51:28;;;;;;;;;;;1.90;99.90;;;;;;5015082;28;19925;-72
2024/01/07 04:53:55;;;;;;;;;;;1.90;99.90;;;;;;5014680;28;20399;-74
2024/01/07 04:56:22;;;;;;;;;;;1.90;99.90;;;;;;5014630;28;19926;-73
2024/01/07 04:58:49;;;;;;;;;;;1.90;99.90;;;;;;5014919;28;19925;-73
2024/01/07 05:01:16;;;;;;;;;;;1.90;99.90;;;;;;5014899;28;19926;-73
2024/01/07 05:03:43;;;;;;;;;;;1.90;99.90;;;;;;5014904;28;19926;-73
2024/01/07 05:06:09;;;;;;;;;;;1.90;99.90;;;;;;5014783;28;19931;-73
2024/01/07 05:08:37;;;;;;;;;;;1.90;99.90;;;;;;5014454;28;19925;-73
2024/01/07 05:11:03;;;;;;;;;;;1.90;99.90;;;;;;5014381;28;20378;-74
2024/01/07 05:13:30;;;;;;;;;;;1.90;99.90;;;;;;5014764;28;19926;-72
2024/01/07 05:15:58;;;;;;;;;;;1.90;99.90;;;;;;5014519;28;20016;-71
2024/01/07 05:18:25;;;;;;;;;;;1.90;99.90;;;;;;5014590;28;19929;-72
2024/01/07 05:20:52;;;;;;;;;;;1.80;99.90;;;;;;5014260;28;20390;-72
2024/01/07 05:23:19;;;;;;;;;;;1.80;99.90;;;;;;5014271;28;19925;-72
2024/01/07 05:25:45;;;;;;;;;;;1.80;99.90;;;;;;5014353;28;19936;-72
2024/01/07 05:28:12;;;;;;;;;;;1.80;99.90;;;;;;5014481;28;19929;-72
2024/01/07 05:30:39;;;;;;;;;;;1.80;99.90;;;;;;5014622;28;19948;-72
2024/01/07 05:33:07;;;;;;;;;;;1.80;99.90;;;;;;5014456;28;19929;-72
2024/01/07 05:35:33;;;;;;;;;;;1.80;99.90;;;;;;5014366;28;19933;-72
2024/01/07 05:38:00;;;;;;;;;;;1.90;99.90;;;;;;5014500;28;19933;-72
2024/01/07 05:40:26;;;;;;;;;;;1.90;99.90;;;;;;5014548;28;19930;-72
2024/01/07 05:42:53;;;;;;;;;;;1.90;99.90;;;;;;5014760;28;19929;-73
2024/01/07 05:45:20;;;;;;;;;;;1.90;99.90;;;;;;5014893;28;19932;-73
2024/01/07 05:47:46;;;;;;;;;;;1.90;99.90;;;;;;5014445;28;19925;-73
2024/01/07 05:50:15;;;;;;;;;;;1.90;99.90;;;;;;5014581;28;19932;-72
2024/01/07 05:52:44;;;;;;;;;;;1.90;99.90;;;;;;5014205;28;19925;-72
2024/01/07 05:55:11;;;;;;;;;;;1.90;99.90;;;;;;5014132;28;19977;-73
2024/01/07 05:57:37;;;;;;;;;;;1.90;99.90;;;;;;5014500;28;19925;-74
2024/01/07 06:00:04;;;;;;;;;;;1.90;99.90;;;;;;5014250;28;19930;-74
2024/01/07 06:02:31;;;;;;;;;;;1.90;99.90;;;;;;5013884;28;19925;-73
2024/01/07 06:04:58;;;;;;;;;;;1.90;99.90;;;;;;5013956;28;19929;-73
2024/01/07 06:07:26;;;;;;;;;;;1.90;99.90;;;;;;5013731;28;19929;-73
2024/01/07 06:09:52;;;;;;;;;;;1.90;99.90;;;;;;5014000;28;19926;-72
2024/01/07 06:12:19;;;;;;;;;;;1.90;99.90;;;;;;5013945;28;19925;-73
2024/01/07 06:14:45;;;;;;;;;;;1.90;99.90;;;;;;5013925;28;19937;-73
2024/01/07 06:17:12;;;;;;;;;;;1.90;99.90;;;;;;5013953;28;19933;-73
2024/01/07 06:19:38;;;;;;;;;;;1.90;99.90;;;;;;5013930;28;19925;-73
2024/01/07 06:22:05;;;;;;;;;;;1.90;99.90;;;;;;5013571;28;20346;-73
2024/01/07 06:24:33;;;;;;;;;;;1.90;99.90;;;;;;5013569;28;19926;-73
2024/01/07 06:26:59;;;;;;;;;;;2.00;99.90;;;;;;5013936;28;19976;-73
2024/01/07 06:29:26;;;;;;;;;;;1.90;99.90;;;;;;5013980;28;19926;-73
2024/01/07 06:31:52;;;;;;;;;;;1.90;99.90;;;;;;5013904;28;19964;-73
2024/01/07 06:34:19;;;;;;;;;;;1.90;99.90;;;;;;5013830;28;19925;-73
2024/01/07 06:36:46;;;;;;;;;;;1.90;99.90;;;;;;5013856;28;19929;-73
2024/01/07 06:39:12;;;;;;;;;;;1.90;99.90;;;;;;5013845;28;19926;-73
2024/01/07 06:41:40;;;;;;;;;;;2.00;99.90;;;;;;5013848;28;19926;-73
2024/01/07 06:44:07;;;;;;;;;;;2.00;99.90;;;;;;5013967;28;20294;-73
2024/01/07 06:46:34;;;;;;;;;;;2.00;99.90;;;;;;5013740;28;19987;-73
2024/01/07 06:49:00;;;;;;;;;;;1.90;99.90;;;;;;5020609;28;19983;-73
2024/01/07 06:51:27;;;;;;;;;;;1.90;99.90;;;;;;5026262;28;19925;-73
2024/01/07 06:53:53;;;;;;;;;;;1.90;99.90;;;;;;5024175;28;19933;-73
2024/01/07 06:56:20;;;;;;;;;;;1.90;99.90;;;;;;5017059;28;19925;-73
2024/01/07 06:58:49;;;;;;;;;;;1.80;99.90;;;;;;5017208;28;19932;-73
2024/01/07 07:01:18;;;;;;;;;;;1.90;99.90;;;;;;5017136;28;19926;-73
2024/01/07 07:03:45;;;;;;;;;;;1.90;99.90;;;;;;5017226;28;19933;-73
2024/01/07 07:06:12;;;;;;;;;;;1.90;99.90;;;;;;5017631;28;19925;-71
2024/01/07 07:08:39;;;;;;;;;;;1.90;99.90;;;;;;5017188;28;19932;-70
2024/01/07 07:11:05;;;;;;;;;;;1.90;99.90;;;;;;5016926;28;19930;-71
2024/01/07 07:13:32;;;;;;;;;;;1.90;99.90;;;;;;5016637;28;20367;-70
2024/01/07 07:16:00;;;;;;;;;;;2.00;99.90;;;;;;5016726;28;20295;-70
2024/01/07 07:18:26;;;;;;;;;;;1.90;99.90;;;;;;5016830;28;19934;-71
2024/01/07 07:20:53;;;;;;;;;;;1.90;99.90;;;;;;5016780;28;19932;-71
2024/01/07 07:23:19;;;;;;;;;;;1.90;99.90;;;;;;5016634;28;19925;-71
2024/01/07 07:25:46;;;;;;;;;;;1.90;99.90;;;;;;5016465;28;19936;-71
2024/01/07 07:28:13;;;;;;;;;;;1.90;99.90;;;;;;5016629;28;19932;-71
2024/01/07 07:30:39;;;;;;;;;;;1.90;99.90;;;;;;5016570;28;19925;-71
2024/01/07 07:33:07;;;;;;;;;;;1.90;99.90;;;;;;5016667;28;19929;-71
2024/01/07 07:35:33;;;;;;;;;;;1.90;99.90;;;;;;5016393;28;19925;-71
2024/01/07 07:38:00;;;;;;;;;;;1.90;99.90;;;;;;5016462;28;19925;-72
2024/01/07 07:40:27;;;;;;;;;;;1.90;99.90;;;;;;5016338;28;19929;-72
2024/01/07 07:42:53;;;;;;;;;;;1.90;99.90;;;;;;5016308;28;19932;-72
2024/01/07 07:45:20;;;;;;;;;;;1.90;99.90;;;;;;5015823;28;19940;-72
2024/01/07 07:47:46;;;;;;;;;;;1.90;99.90;;;;;;5016305;28;19933;-72
2024/01/07 07:50:14;;;;;;;;;;;1.90;99.90;;;;;;5016265;28;19933;-72
2024/01/07 07:52:43;;;;;;;;;;;1.90;99.90;;;;;;5015892;28;20272;-72
2024/01/07 07:55:10;;;;;;;;;;;1.90;99.90;;;;;;5015980;28;19972;-72
2024/01/07 07:57:37;;;;;;;;;;;1.90;99.90;;;;;;5016152;28;19937;-72
2024/01/07 08:00:04;;;;;;;;;;;1.90;99.90;;;;;;5016118;28;19933;-72
2024/01/07 08:02:31;;;;;;;;;;;1.90;99.90;;;;;;5015077;28;19929;-72
2024/01/07 08:04:57;;;;;;;;;;;2.00;99.90;;;;;;5015981;28;19929;-72
2024/01/07 08:07:25;;;;;;;;;;;2.10;99.90;;;;;;5015922;28;19925;-72
2024/01/07 08:09:53;;;;;;;;;;;2.00;99.90;;;;;;5015859;28;19972;-72
2024/01/07 08:12:19;;;;;;;;;;;2.10;99.90;;;;;;5015840;28;19930;-73
2024/01/07 08:14:46;;;;;;;;;;;2.10;99.90;;;;;;5015725;28;19937;-71
2024/01/07 08:17:12;;;;;;;;;;;2.10;99.90;;;;;;5015732;28;19926;-71
2024/01/07 08:19:39;;;;;;;;;;;2.20;99.90;;;;;;5015712;28;19926;-71
2024/01/07 08:22:05;;;;;;;;;;;2.20;99.90;;;;;;5015310;28;20387;-71
2024/01/07 08:24:33;;;;;;;;;;;2.30;99.90;;;;;;5015280;28;19926;-71
2024/01/07 08:27:00;;;;;;;;;;;2.30;99.90;;;;;;5015137;28;19926;-72
2024/01/07 08:29:26;;;;;;;;;;;2.40;99.90;;;;;;5015609;28;19936;-72
2024/01/07 08:31:53;;;;;;;;;;;2.40;99.90;;;;;;5015040;28;20322;-72
2024/01/07 08:34:20;;;;;;;;;;;2.50;99.90;;;;;;5015461;28;19926;-72
2024/01/07 08:36:46;;;;;;;;;;;2.50;99.90;;;;;;5015224;28;19929;-72
2024/01/07 08:39:14;;;;;;;;;;;2.50;99.90;;;;;;5015439;28;19926;-72
2024/01/07 08:41:42;;;;;;;;;;;2.50;99.90;;;;;;5015307;28;19925;-72
2024/01/07 08:44:09;;;;;;;;;;;2.50;99.90;;;;;;5015201;28;19933;-72
2024/01/07 08:46:35;;;;;;;;;;;2.50;99.90;;;;;;5015081;28;19964;-72
2024/01/07 08:49:02;;;;;;;;;;;2.50;99.90;;;;;;5015201;28;19933;-72
2024/01/07 08:51:29;;;;;;;;;;;2.50;99.90;;;;;;5014986;28;20306;-72
2024/01/07 08:53:57;;;;;;;;;;;2.50;99.90;;;;;;5014672;28;20394;-72
2024/01/07 08:56:24;;;;;;;;;;;2.50;99.90;;;;;;5014547;28;20375;-72
2024/01/07 08:58:52;;;;;;;;;;;2.60;99.90;;;;;;5014801;28;20415;-72
2024/01/07 09:01:18;;;;;;;;;;;2.60;99.90;;;;;;5015219;28;19956;-72
2024/01/07 09:03:45;;;;;;;;;;;2.60;99.90;;;;;;5014788;28;19932;-74
2024/01/07 09:06:11;;;;;;;;;;;2.60;99.90;;;;;;5014676;28;19933;-73
2024/01/07 09:08:38;;;;;;;;;;;2.60;99.90;;;;;;5014776;28;19933;-74
2024/01/07 09:11:06;;;;;;;;;;;2.60;99.90;;;;;;5014663;28;19925;-74
2024/01/07 09:13:33;;;;;;;;;;;2.70;99.90;;;;;;5014130;28;19971;-74
2024/01/07 09:16:00;;;;;;;;;;;2.70;99.90;;;;;;5014629;28;19948;-72
2024/01/07 09:18:27;;;;;;;;;;;2.70;99.90;;;;;;5014676;28;19929;-72
2024/01/07 09:20:53;;;;;;;;;;;2.60;99.90;;;;;;5014644;28;19926;-73
2024/01/07 09:23:20;;;;;;;;;;;2.70;99.90;;;;;;5015536;28;19925;-73
2024/01/07 09:25:47;;;;;;;;;;;2.80;99.90;;;;;;5015829;28;20398;-73
2024/01/07 09:28:13;;;;;;;;;;;2.80;99.90;;;;;;5015885;28;19973;-72
2024/01/07 09:30:40;;;;;;;;;;;2.90;99.90;;;;;;5015724;28;20395;-73
2024/01/07 09:33:08;;;;;;;;;;;2.90;99.90;;;;;;5016268;28;19930;-73
2024/01/07 09:35:34;;;;;;;;;;;3.00;99.90;;;;;;5016741;28;19968;-74
2024/01/07 09:38:01;;;;;;;;;;;3.10;99.90;;;;;;5017691;28;19932;-77
2024/01/07 09:40:27;;;;;;;;;;;3.10;99.90;;;;;;5017273;28;19926;-75
2024/01/07 09:42:54;;;;;;;;;;;3.20;99.90;;;;;;5017195;28;19929;-76
2024/01/07 09:45:22;;;;;;;;;;;3.20;99.90;;;;;;5017131;28;19930;-76
2024/01/07 09:47:49;;;;;;;;;;;3.20;99.90;;;;;;5017566;28;19929;-75
2024/01/07 09:50:17;;;;;;;;;;;3.30;99.90;;;;;;5016977;28;20322;-77
2024/01/07 09:52:44;;;;;;;;;;;3.20;99.90;;;;;;5015371;28;20383;-76
2024/01/07 09:55:13;;;;;;;;;;;3.20;99.90;;;;;;5013943;28;20023;-75
2024/01/07 09:57:41;;;;;;;;;;;3.20;99.90;;;;;;5014960;28;19930;-73
2024/01/07 10:00:09;;;;;;;;;;;3.20;99.90;;;;;;5014256;28;19932;-76
2024/01/07 10:02:36;;;;;;;;;;;3.20;99.90;;;;;;5015164;28;19926;-76
2024/01/07 10:05:02;;;;;;;;;;;3.20;99.90;;;;;;5014214;28;19932;-76
2024/01/07 10:07:30;;;;;;;;;;;3.20;99.90;;;;;;5014169;28;20391;-76
2024/01/07 10:09:57;;;;;;;;;;;3.30;99.90;;;;;;5014312;28;20422;-73
2024/01/07 10:12:24;;;;;;;;;;;3.30;99.90;;;;;;5014315;28;19926;-75
2024/01/07 10:14:50;;;;;;;;;;;3.20;99.90;;;;;;5014063;28;19932;-73
2024/01/07 10:17:17;;;;;;;;;;;3.20;99.90;;;;;;5014170;28;19929;-74
2024/01/07 10:19:44;;;;;;;;;;;3.20;99.90;;;;;;5014290;28;19973;-74
2024/01/07 10:22:13;;;;;;;;;;;3.30;99.90;;;;;;5014191;28;19933;-74
2024/01/07 10:24:42;;;;;;;;;;;3.30;99.90;;;;;;5014044;28;20329;-73
2024/01/07 10:27:09;;;;;;;;;;;3.30;99.90;;;;;;5018248;28;19933;-75
2024/01/07 10:29:36;;;;;;;;;;;3.20;99.90;;;;;;5017949;28;20001;-74
2024/01/07 10:32:04;;;;;;;;;;;3.20;99.90;;;;;;5018106;28;19926;-76
2024/01/07 10:34:32;;;;;;;;;;;3.30;99.90;;;;;;5017722;28;19980;-76
2024/01/07 10:36:59;;;;;;;;;;;3.20;99.90;;;;;;5018154;28;19926;-76
2024/01/07 10:39:26;;;;;;;;;;;3.10;99.90;;;;;;5017758;28;19925;-76
2024/01/07 10:41:57;;;;;;;;;;;3.10;99.90;;;;;;5018115;28;19925;-77
2024/01/07 10:44:24;;;;;;;;;;;3.00;99.90;;;;;;5018939;28;19926;-77
2024/01/07 10:46:52;;;;;;;;;;;3.00;99.90;;;;;;5018960;28;19925;-77
2024/01/07 10:49:20;;;;;;;;;;;3.00;99.90;;;;;;5018431;28;20337;-77
2024/01/07 10:51:51;;;;;;;;;;;3.00;99.90;;;;;;5017817;28;19973;-77
2024/01/07 10:54:20;;;;;;;;;;;2.90;99.90;;;;;;5017790;28;19936;-77
2024/01/07 10:56:49;;;;;;;;;;;2.90;99.90;;;;;;5016932;28;19980;-76
2024/01/07 10:59:18;;;;;;;;;;;3.00;99.90;;;;;;5017258;28;19933;-76
2024/01/07 11:01:44;;;;;;;;;;;2.90;99.90;;;;;;5017333;28;19932;-76
2024/01/07 11:04:14;;;;;;;;;;;2.90;99.90;;;;;;5016857;28;20397;-76
2024/01/07 11:06:44;;;;;;;;;;;2.90;99.90;;;;;;5017162;28;19926;-77
2024/01/07 11:09:15;;;;;;;;;;;2.80;99.90;;;;;;5017187;28;19932;-77
2024/01/07 11:11:42;;;;;;;;;;;2.80;99.90;;;;;;5017050;28;19926;-76
2024/01/07 11:14:23;;;;;;;;;;;2.80;99.90;;;;;;5017084;28;20035;-76
2024/01/07 11:16:53;;;;;;;;;;;2.80;99.90;;;;;;5016524;28;19925;-76
2024/01/07 11:19:20;;;;;;;;;;;2.70;99.90;;;;;;5016978;28;19949;-77
2024/01/07 11:21:47;;;;;;;;;;;2.70;99.90;;;;;;5017217;28;19926;-76
2024/01/07 11:24:28;;;;;;;;;;;2.60;99.90;;;;;;5017579;28;19925;-76
2024/01/07 11:27:00;;;;;;;;;;;2.60;99.90;;;;;;5016560;28;19926;-76
2024/01/07 11:29:27;;;;;;;;;;;2.50;99.90;;;;;;5016953;28;19925;-76
2024/01/07 11:31:55;;;;;;;;;;;2.60;99.90;;;;;;5017445;28;19932;-76
2024/01/07 11:34:39;;;;;;;;;;;2.50;99.90;;;;;;5017196;28;19925;-76
2024/01/07 11:37:08;;;;;;;;;;;2.60;99.90;;;;;;5016297;28;19933;-76
2024/01/07 11:39:35;;;;;;;;;;;2.50;99.90;;;;;;5016376;28;20449;-76
2024/01/07 11:42:02;;;;;;;;;;;2.60;99.90;;;;;;5016597;28;20288;-75
2024/01/07 11:44:28;;;;;;;;;;;2.50;99.90;;;;;;5016504;28;19930;-75
2024/01/07 11:46:56;;;;;;;;;;;2.50;99.90;;;;;;5016307;28;19926;-74
2024/01/07 11:49:23;;;;;;;;;;;2.50;99.90;;;;;;5016405;28;19925;-75
2024/01/07 11:51:50;;;;;;;;;;;2.50;99.90;;;;;;5016329;28;19926;-76
2024/01/07 11:54:17;;;;;;;;;;;2.50;99.90;;;;;;5015810;28;19932;-76
2024/01/07 11:56:44;;;;;;;;;;;2.40;99.90;;;;;;5017329;28;19927;-76
2024/01/07 11:59:10;;;;;;;;;;;2.50;99.90;;;;;;5016808;28;19925;-76
2024/01/07 12:01:37;;;;;;;;;;;2.50;99.90;;;;;;5016303;28;19925;-76
2024/01/07 12:04:05;;;;;;;;;;;2.50;99.90;;;;;;5016506;28;19937;-76
2024/01/07 12:06:32;;;;;;;;;;;2.60;99.90;;;;;;5016196;28;19933;-76
2024/01/07 12:09:00;;;;;;;;;;;2.40;99.90;;;;;;5016076;28;20217;-75
2024/01/07 12:11:27;;;;;;;;;;;2.40;99.90;;;;;;5015931;28;19925;-76
2024/01/07 12:13:54;;;;;;;;;;;2.40;99.90;;;;;;5016172;28;19932;-74
2024/01/07 12:16:21;;;;;;;;;;;2.30;99.90;;;;;;5015794;28;19925;-77
2024/01/07 12:18:48;;;;;;;;;;;2.30;99.90;;;;;;5016987;28;19926;-76
2024/01/07 12:21:21;;;;;;;;;;;2.30;99.90;;;;;;5017985;28;19926;-76
2024/01/07 12:23:49;;;;;;;;;;;2.30;99.90;;;;;;5018074;28;19932;-74
2024/01/07 12:26:15;;;;;;;;;;;2.30;99.90;;;;;;5017516;28;19933;-76
2024/01/07 12:28:42;;;;;;;;;;;2.30;99.90;;;;;;5018090;28;19925;-76
2024/01/07 12:31:09;;;;;;;;;;;2.30;99.90;;;;;;5017738;28;19929;-76
2024/01/07 12:33:37;;;;;;;;;;;2.10;99.90;;;;;;5017532;28;19948;-77
2024/01/07 12:36:04;;;;;;;;;;;2.10;99.90;;;;;;5018027;28;19932;-77
2024/01/07 12:38:32;;;;;;;;;;;2.10;99.90;;;;;;5017511;28;19933;-76
2024/01/07 12:40:59;;;;;;;;;;;2.00;99.90;;;;;;5017825;28;19977;-76
2024/01/07 12:43:25;;;;;;;;;;;2.00;99.90;;;;;;5017520;28;19925;-76
2024/01/07 12:45:52;;;;;;;;;;;1.90;99.90;;;;;;5018087;28;19933;-77
2024/01/07 12:48:19;;;;;;;;;;;1.90;99.90;;;;;;5017417;28;19929;-77
2024/01/07 12:50:46;;;;;;;;;;;1.90;99.90;;;;;;5018654;28;19932;-77
2024/01/07 12:53:12;;;;;;;;;;;1.80;99.90;;;;;;5018261;28;19933;-76
2024/01/07 12:55:40;;;;;;;;;;;1.70;99.90;;;;;;5017463;28;20032;-77
2024/01/07 12:58:07;;;;;;;;;;;1.70;99.90;;;;;;5017760;28;19933;-74
2024/01/07 13:00:35;;;;;;;;;;;1.70;99.90;;;;;;5018010;28;19925;-76
2024/01/07 13:03:01;;;;;;;;;;;1.70;99.90;;;;;;5018620;28;19957;-76
2024/01/07 13:05:28;;;;;;;;;;;1.70;99.90;;;;;;5018374;28;20374;-75
2024/01/07 13:07:55;;;;;;;;;;;1.60;99.90;;;;;;5018859;28;19926;-77
2024/01/07 13:10:22;;;;;;;;;;;1.50;99.90;;;;;;5018435;28;19932;-75
2024/01/07 13:12:49;;;;;;;;;;;1.40;99.90;;;;;;5019761;28;19926;-76
2024/01/07 13:15:19;;;;;;;;;;;1.40;99.90;;;;;;5019207;28;19925;-77
2024/01/07 13:17:45;;;;;;;;;;;1.40;99.90;;;;;;5017448;28;19926;-77
2024/01/07 13:20:12;;;;;;;;;;;1.50;99.90;;;;;;5016109;28;20386;-75
2024/01/07 13:22:39;;;;;;;;;;;1.30;99.90;;;;;;5017923;28;20318;-74
2024/01/07 13:25:06;;;;;;;;;;;1.30;99.90;;;;;;5017980;28;19932;-76
2024/01/07 13:27:34;;;;;;;;;;;1.20;99.90;;;;;;5017943;28;19925;-75
2024/01/07 13:30:02;;;;;;;;;;;1.20;99.90;;;;;;5017964;28;20028;-74
2024/01/07 13:32:29;;;;;;;;;;;1.20;99.90;;;;;;5023998;28;19975;-74
2024/01/07 13:34:55;;;;;;;;;;;1.20;99.90;;;;;;5025113;28;19926;-74
2024/01/07 13:37:22;;;;;;;;;;;1.20;99.90;;;;;;5025220;28;19933;-75
2024/01/07 13:39:49;;;;;;;;;;;1.00;99.90;;;;;;5015038;28;19929;-74
2024/01/07 13:42:16;;;;;;;;;;;1.20;99.90;;;;;;5016436;28;19925;-75
2024/01/07 13:44:46;;;;;;;;;;;0.90;99.90;;;;;;5015516;28;19925;-74
2024/01/07 13:47:15;;;;;;;;;;;0.90;99.90;;;;;;5015609;28;20020;-74
2024/01/07 13:49:44;;;;;;;;;;;0.90;99.90;;;;;;5016242;28;20270;-75
2024/01/07 13:52:11;;;;;;;;;;;0.90;99.90;;;;;;5014233;28;19947;-73
2024/01/07 13:54:38;;;;;;;;;;;0.80;99.90;;;;;;5014410;28;19949;-72
2024/01/07 13:57:05;;;;;;;;;;;0.80;99.90;;;;;;5013731;28;19926;-70
2024/01/07 13:59:31;;;;;;;;;;;0.80;99.90;;;;;;5015521;28;19932;-71
2024/01/07 14:01:59;;;;;;;;;;;0.80;99.90;;;;;;5018376;28;19948;-71
2024/01/07 14:04:27;;;;;;;;;;;0.80;99.90;;;;;;5017953;28;19926;-70
2024/01/07 14:06:54;;;;;;;;;;;0.80;99.90;;;;;;5018257;28;19964;-71
2024/01/07 14:09:21;;;;;;;;;;;0.70;99.90;;;;;;5018582;28;19933;-71
2024/01/07 14:11:47;;;;;;;;;;;0.90;99.90;;;;;;5018577;28;19926;-72
2024/01/07 14:14:14;;;;;;;;;;;0.70;99.90;;;;;;5018682;28;19933;-71
2024/01/07 14:16:41;;;;;;;;;;;0.70;99.90;;;;;;5018483;28;19932;-72
2024/01/07 14:19:07;;;;;;;;;;;0.70;99.90;;;;;;5017909;28;19948;-72
2024/01/07 14:21:35;;;;;;;;;;;0.70;99.90;;;;;;5018828;28;19948;-71
2024/01/07 14:24:02;;;;;;;;;;;0.60;99.90;;;;;;5018287;28;19926;-76
2024/01/07 14:26:29;;;;;;;;;;;0.60;99.90;;;;;;5018441;28;19975;-76
2024/01/07 14:28:56;;;;;;;;;;;0.50;99.90;;;;;;5018101;28;19925;-75